createdAt,value
2022-10-06T00:04:03.410Z,12.86
2022-10-06T00:09:05.237Z,12.73
2022-10-06T00:14:07.363Z,12.72
2022-10-06T00:19:09.014Z,12.67
2022-10-06T00:24:10.967Z,12.76
2022-10-06T00:29:13.698Z,12.79
2022-10-06T00:34:15.567Z,12.88
2022-10-06T00:39:17.261Z,12.91
2022-10-06T00:44:19.013Z,12.93
2022-10-06T00:49:28.083Z,12.96
2022-10-06T00:54:31.810Z,12.76
2022-10-06T00:59:35.083Z,12.24
2022-10-06T01:04:43.406Z,12.08
2022-10-06T01:09:45.669Z,12.05
2022-10-06T01:14:49.122Z,12.00
2022-10-06T01:20:05.981Z,11.94
2022-10-06T01:25:10.190Z,11.94
2022-10-06T01:30:17.235Z,11.84
2022-10-06T01:35:19.203Z,11.95
2022-10-06T01:40:21.347Z,12.01
2022-10-06T01:45:23.352Z,11.96
2022-10-06T01:50:25.464Z,12.06
2022-10-06T01:55:27.763Z,12.07
2022-10-06T02:00:32.818Z,12.13
2022-10-06T02:05:35.783Z,12.07
2022-10-06T02:10:37.689Z,12.03
2022-10-06T02:15:44.547Z,11.94
2022-10-06T02:20:46.305Z,11.99
2022-10-06T02:25:48.102Z,11.98
2022-10-06T02:30:50.199Z,12.07
2022-10-06T02:35:56.050Z,12.05
2022-10-06T02:41:00.001Z,12.10
2022-10-06T02:46:08.129Z,12.10
2022-10-06T02:51:13.310Z,12.08
2022-10-06T02:56:22.152Z,11.97
2022-10-06T03:01:27.201Z,11.85
2022-10-06T03:06:32.138Z,11.39
2022-10-06T03:11:41.587Z,11.55
2022-10-06T03:16:46.096Z,11.62
2022-10-06T03:21:53.862Z,11.63
2022-10-06T03:27:00.240Z,11.68
2022-10-06T03:32:02.009Z,11.69
2022-10-06T03:37:04.285Z,11.65
2022-10-06T03:42:06.506Z,11.59
2022-10-06T03:47:13.228Z,11.52
2022-10-06T03:52:22.397Z,11.36
2022-10-06T03:57:28.041Z,11.27
2022-10-06T04:02:30.397Z,11.25
2022-10-06T04:07:33.417Z,11.23
2022-10-06T04:12:36.813Z,11.21
2022-10-06T04:17:38.755Z,11.13
2022-10-06T04:22:40.651Z,11.12
2022-10-06T04:27:43.063Z,11.06
2022-10-06T04:32:48.268Z,10.91
2022-10-06T04:37:50.375Z,10.95
2022-10-06T04:42:52.757Z,10.70
2022-10-06T04:47:54.746Z,10.64
2022-10-06T04:52:57.072Z,10.51
2022-10-06T04:57:58.888Z,10.56
2022-10-06T05:03:00.749Z,10.52
2022-10-06T05:08:02.494Z,10.57
2022-10-06T05:13:06.178Z,10.63
2022-10-06T05:18:08.334Z,10.60
2022-10-06T05:23:10.421Z,10.63
2022-10-06T05:28:12.353Z,10.70
2022-10-06T05:33:14.437Z,10.73
2022-10-06T05:38:16.979Z,10.68
2022-10-06T05:43:19.177Z,10.71
2022-10-06T05:48:21.300Z,10.57
2022-10-06T05:53:23.589Z,10.48
2022-10-06T05:58:25.902Z,10.44
2022-10-06T06:03:28.212Z,10.47
2022-10-06T06:08:32.401Z,10.66
2022-10-06T06:13:36.066Z,10.90
2022-10-06T06:18:42.770Z,11.14
2022-10-06T06:23:48.738Z,11.41
2022-10-06T06:28:55.440Z,11.65
2022-10-06T06:33:59.336Z,11.81
2022-10-06T06:39:06.462Z,12.04
2022-10-06T06:44:11.491Z,12.17
2022-10-06T06:49:20.108Z,12.28
2022-10-06T06:54:27.824Z,12.49
2022-10-06T06:59:35.985Z,12.68
2022-10-06T07:04:39.925Z,12.81
2022-10-06T07:09:44.283Z,12.68
2022-10-06T07:15:06.620Z,12.92
2022-10-06T07:20:43.066Z,13.09
2022-10-06T07:25:45.436Z,13.36
2022-10-06T07:30:48.388Z,13.54
2022-10-06T07:35:55.192Z,13.74
2022-10-06T07:41:18.516Z,13.77
2022-10-06T07:46:24.616Z,13.90
2022-10-06T07:51:44.877Z,14.36
2022-10-06T07:56:46.710Z,14.63
2022-10-06T08:01:51.170Z,14.69
2022-10-06T08:06:54.510Z,14.58
2022-10-06T08:11:56.436Z,14.89
2022-10-06T08:17:00.961Z,14.90
2022-10-06T08:22:04.916Z,14.87
2022-10-06T08:27:07.162Z,15.31
2022-10-06T08:32:08.813Z,15.53
2022-10-06T08:37:19.814Z,15.65
2022-10-06T08:42:42.634Z,15.80
2022-10-06T08:47:56.830Z,15.97
2022-10-06T08:53:23.317Z,16.27
2022-10-06T08:58:52.781Z,16.40
2022-10-06T09:04:01.745Z,16.52
2022-10-06T09:09:14.867Z,16.83
2022-10-06T09:14:33.591Z,17.02
2022-10-06T09:19:44.315Z,17.25
2022-10-06T09:24:50.363Z,17.31
2022-10-06T09:29:52.613Z,17.43
2022-10-06T09:34:57.132Z,17.68
2022-10-06T09:39:59.085Z,17.82
2022-10-06T09:45:16.278Z,18.10
2022-10-06T09:50:26.396Z,18.19
2022-10-06T09:55:41.492Z,18.45
2022-10-06T10:00:48.157Z,18.70
2022-10-06T10:05:52.156Z,18.76
2022-10-06T10:11:32.272Z,19.07
2022-10-06T10:16:35.799Z,19.14
2022-10-06T10:21:38.140Z,19.28
2022-10-06T10:27:14.375Z,19.31
2022-10-06T10:32:23.444Z,19.65
2022-10-06T10:37:33.790Z,19.87
2022-10-06T10:42:50.778Z,19.97
2022-10-06T10:47:54.321Z,20.09
2022-10-06T10:53:02.586Z,20.54
2022-10-06T10:58:29.477Z,20.65
2022-10-06T11:03:31.568Z,20.75
2022-10-06T11:08:39.797Z,21.18
2022-10-06T11:13:52.458Z,21.37
2022-10-06T11:19:22.105Z,21.41
2022-10-06T11:24:36.313Z,21.65
2022-10-06T11:29:53.833Z,21.78
2022-10-06T11:34:55.530Z,22.02
2022-10-06T11:40:31.876Z,22.20
2022-10-06T11:45:44.998Z,22.46
2022-10-06T11:50:51.073Z,22.81
2022-10-06T11:56:18.152Z,23.04
2022-10-06T12:01:36.235Z,23.01
2022-10-06T12:06:47.132Z,23.06
2022-10-06T12:11:50.428Z,23.29
2022-10-06T12:17:15.307Z,23.37
2022-10-06T12:22:30.948Z,23.70
2022-10-06T12:27:48.257Z,23.84
2022-10-06T12:32:59.200Z,24.01
2022-10-06T12:38:06.449Z,24.05
2022-10-06T12:43:27.174Z,23.89
2022-10-06T12:48:34.746Z,24.10
2022-10-06T12:53:41.604Z,24.10
2022-10-06T12:58:43.541Z,24.24
2022-10-06T13:03:50.229Z,24.20
2022-10-06T13:09:14.586Z,24.00
2022-10-06T13:14:16.470Z,23.93
2022-10-06T13:19:28.338Z,23.91
2022-10-06T13:24:30.062Z,23.96
2022-10-06T13:29:31.938Z,24.07
2022-10-06T13:34:41.970Z,24.03
2022-10-06T13:39:43.803Z,24.08
2022-10-06T13:44:54.057Z,24.05
2022-10-06T13:50:06.089Z,24.06
2022-10-06T13:55:18.997Z,24.13
2022-10-06T14:00:22.091Z,24.18
2022-10-06T14:05:30.407Z,24.18
2022-10-06T14:10:41.215Z,24.22
2022-10-06T14:15:50.599Z,24.03
2022-10-06T14:20:56.549Z,23.95
2022-10-06T14:25:58.627Z,24.01
2022-10-06T14:31:01.151Z,23.97
2022-10-06T14:36:03.295Z,23.82
2022-10-06T14:41:05.074Z,23.72
2022-10-06T14:46:10.311Z,23.71
2022-10-06T14:51:12.027Z,23.66
2022-10-06T14:56:14.653Z,23.64
2022-10-06T15:01:17.785Z,23.57
2022-10-06T15:06:57.892Z,23.45
2022-10-06T15:12:00.207Z,23.41
2022-10-06T15:17:02.325Z,23.34
2022-10-06T15:22:06.361Z,23.24
2022-10-06T15:27:28.066Z,23.11
2022-10-06T15:32:29.732Z,23.02
2022-10-06T15:37:32.123Z,22.89
2022-10-06T15:42:33.743Z,22.74
2022-10-06T15:47:35.573Z,22.61
2022-10-06T15:52:37.367Z,22.50
2022-10-06T15:57:38.956Z,22.40
2022-10-06T16:02:40.881Z,22.22
2022-10-06T16:07:42.915Z,22.13
2022-10-06T16:12:45.214Z,22.01
2022-10-06T16:17:46.824Z,21.89
2022-10-06T16:22:48.470Z,21.75
2022-10-06T16:27:50.250Z,21.55
2022-10-06T16:32:52.198Z,21.34
2022-10-06T16:37:54.177Z,21.10
2022-10-06T16:42:57.744Z,20.92
2022-10-06T16:47:59.672Z,20.83
2022-10-06T16:53:01.490Z,20.69
2022-10-06T16:58:03.375Z,20.52
2022-10-06T17:03:05.191Z,20.42
2022-10-06T17:08:06.816Z,20.30
2022-10-06T17:13:08.974Z,20.08
2022-10-06T17:18:10.568Z,20.02
2022-10-06T17:23:13.033Z,19.93
2022-10-06T17:28:14.906Z,19.82
2022-10-06T17:33:17.190Z,19.76
2022-10-06T17:38:18.814Z,19.62
2022-10-06T17:43:20.483Z,19.49
2022-10-06T17:48:27.114Z,19.31
2022-10-06T17:53:28.839Z,19.21
2022-10-06T17:58:30.654Z,19.11
2022-10-06T18:03:35.745Z,19.05
2022-10-06T18:08:42.553Z,18.92
2022-10-06T18:13:45.388Z,18.90
2022-10-06T18:18:49.662Z,18.72
2022-10-06T18:31:50.706Z,18.33
2022-10-06T18:36:53.055Z,18.04
2022-10-06T18:41:55.058Z,17.75
2022-10-06T18:47:15.476Z,17.86
2022-10-06T18:52:17.745Z,17.71
2022-10-06T18:57:23.811Z,17.62
2022-10-06T19:02:28.750Z,17.66
2022-10-06T19:07:30.721Z,17.53
2022-10-06T19:12:32.919Z,17.41
2022-10-06T19:17:35.281Z,17.27
2022-10-06T19:22:37.341Z,17.18
2022-10-06T19:27:39.486Z,17.20
2022-10-06T19:32:41.350Z,16.68
2022-10-06T19:37:43.311Z,16.80
2022-10-06T19:42:48.400Z,16.86
2022-10-06T19:47:51.403Z,16.39
2022-10-06T19:52:53.121Z,16.41
2022-10-06T19:57:54.915Z,16.52
2022-10-06T20:02:57.190Z,16.61
2022-10-06T20:07:59.084Z,16.59
2022-10-06T20:13:00.925Z,16.62
2022-10-06T20:18:04.492Z,16.60
2022-10-06T20:23:07.344Z,16.58
2022-10-06T20:28:10.790Z,16.55
2022-10-06T20:33:12.898Z,16.31
2022-10-06T20:38:14.814Z,16.19
2022-10-06T20:43:16.909Z,16.00
2022-10-06T20:48:19.127Z,15.94
2022-10-06T20:53:20.976Z,15.93
2022-10-06T20:58:25.100Z,15.80
2022-10-06T21:03:26.669Z,15.79
2022-10-06T21:08:30.065Z,15.76
2022-10-06T21:13:32.539Z,15.69
2022-10-06T21:18:34.433Z,15.67
2022-10-06T21:23:51.936Z,15.60
2022-10-06T21:28:53.988Z,14.58
2022-10-06T21:33:56.176Z,14.71
2022-10-06T21:39:00.280Z,14.83
2022-10-06T21:44:08.968Z,14.89
2022-10-06T21:49:13.113Z,14.93
2022-10-06T21:54:15.315Z,14.92
2022-10-06T21:59:17.824Z,14.90
2022-10-06T22:04:19.820Z,14.85
2022-10-06T22:09:22.157Z,14.90
2022-10-06T22:14:24.266Z,14.83
2022-10-06T22:19:26.192Z,14.74
2022-10-06T22:24:30.417Z,14.73
2022-10-06T22:29:32.280Z,14.74
2022-10-06T22:34:34.147Z,14.69
2022-10-06T22:39:35.740Z,14.65
2022-10-06T22:44:37.620Z,14.56
2022-10-06T22:49:39.318Z,14.40
2022-10-06T22:54:41.413Z,14.22
2022-10-06T22:59:44.449Z,13.87
2022-10-06T23:04:46.275Z,13.91
2022-10-06T23:09:48.640Z,13.89
2022-10-06T23:14:50.511Z,13.87
2022-10-06T23:19:52.160Z,13.80
2022-10-06T23:24:53.979Z,13.80
2022-10-06T23:29:55.929Z,13.75
2022-10-06T23:34:58.405Z,13.75
2022-10-06T23:40:00.942Z,13.67
2022-10-06T23:45:03.131Z,13.70
2022-10-06T23:50:05.541Z,13.62
2022-10-06T23:55:07.781Z,13.54
